sensor_id;sensor_type;location;lat;lon;timestamp;P1;durP1;ratioP1;P2;durP2;ratioP2
37823;SDS011;23667;43.246;26.576;2022-07-06T00:01:21;7.75;;;2.85;;
37823;SDS011;23667;43.246;26.576;2022-07-06T00:03:47;8.70;;;3.15;;
37823;SDS011;23667;43.246;26.576;2022-07-06T00:06:13;6.85;;;2.83;;
37823;SDS011;23667;43.246;26.576;2022-07-06T00:08:39;3.40;;;2.65;;
37823;SDS011;23667;43.246;26.576;2022-07-06T00:11:05;9.27;;;3.05;;
37823;SDS011;23667;43.246;26.576;2022-07-06T00:13:31;10.20;;;2.90;;
37823;SDS011;23667;43.246;26.576;2022-07-06T00:15:56;6.28;;;2.85;;
37823;SDS011;23667;43.246;26.576;2022-07-06T00:18:22;11.25;;;3.67;;
37823;SDS011;23667;43.246;26.576;2022-07-06T00:20:47;8.50;;;3.42;;
37823;SDS011;23667;43.246;26.576;2022-07-06T00:23:13;7.65;;;3.03;;
37823;SDS011;23667;43.246;26.576;2022-07-06T00:25:38;14.73;;;2.70;;
37823;SDS011;23667;43.246;26.576;2022-07-06T00:28:04;6.70;;;2.72;;
37823;SDS011;23667;43.246;26.576;2022-07-06T00:30:29;6.95;;;3.45;;
37823;SDS011;23667;43.246;26.576;2022-07-06T00:32:55;10.02;;;3.60;;
37823;SDS011;23667;43.246;26.576;2022-07-06T00:35:23;7.88;;;3.20;;
37823;SDS011;23667;43.246;26.576;2022-07-06T00:37:49;6.03;;;2.65;;
37823;SDS011;23667;43.246;26.576;2022-07-06T00:40:14;6.15;;;3.15;;
37823;SDS011;23667;43.246;26.576;2022-07-06T00:42:41;12.23;;;3.55;;
37823;SDS011;23667;43.246;26.576;2022-07-06T00:45:12;9.13;;;3.83;;
37823;SDS011;23667;43.246;26.576;2022-07-06T00:47:39;11.18;;;3.55;;
37823;SDS011;23667;43.246;26.576;2022-07-06T00:50:06;11.05;;;3.30;;
37823;SDS011;23667;43.246;26.576;2022-07-06T00:52:42;6.72;;;3.10;;
37823;SDS011;23667;43.246;26.576;2022-07-06T00:55:29;9.20;;;3.65;;
37823;SDS011;23667;43.246;26.576;2022-07-06T00:58:03;5.03;;;2.85;;
37823;SDS011;23667;43.246;26.576;2022-07-06T01:00:29;8.25;;;3.05;;
37823;SDS011;23667;43.246;26.576;2022-07-06T01:02:56;8.20;;;3.35;;
37823;SDS011;23667;43.246;26.576;2022-07-06T01:05:22;4.70;;;3.20;;
37823;SDS011;23667;43.246;26.576;2022-07-06T01:07:48;7.15;;;3.47;;
37823;SDS011;23667;43.246;26.576;2022-07-06T01:10:17;8.38;;;3.33;;
37823;SDS011;23667;43.246;26.576;2022-07-06T01:12:44;7.18;;;3.50;;
37823;SDS011;23667;43.246;26.576;2022-07-06T01:15:15;6.45;;;3.35;;
37823;SDS011;23667;43.246;26.576;2022-07-06T01:17:43;5.45;;;2.88;;
37823;SDS011;23667;43.246;26.576;2022-07-06T01:20:15;5.68;;;2.35;;
37823;SDS011;23667;43.246;26.576;2022-07-06T01:22:45;6.78;;;3.00;;
37823;SDS011;23667;43.246;26.576;2022-07-06T01:25:12;12.65;;;3.42;;
37823;SDS011;23667;43.246;26.576;2022-07-06T01:27:39;6.03;;;3.22;;
37823;SDS011;23667;43.246;26.576;2022-07-06T01:30:07;8.73;;;3.50;;
37823;SDS011;23667;43.246;26.576;2022-07-06T01:32:34;12.07;;;2.60;;
37823;SDS011;23667;43.246;26.576;2022-07-06T01:35:02;6.30;;;2.83;;
37823;SDS011;23667;43.246;26.576;2022-07-06T01:37:30;7.72;;;3.17;;
37823;SDS011;23667;43.246;26.576;2022-07-06T01:39:59;8.38;;;3.38;;
37823;SDS011;23667;43.246;26.576;2022-07-06T01:42:25;11.40;;;3.10;;
37823;SDS011;23667;43.246;26.576;2022-07-06T01:44:51;3.97;;;2.30;;
37823;SDS011;23667;43.246;26.576;2022-07-06T01:47:16;9.35;;;2.85;;
37823;SDS011;23667;43.246;26.576;2022-07-06T01:49:42;10.65;;;2.95;;
37823;SDS011;23667;43.246;26.576;2022-07-06T01:52:07;7.40;;;2.80;;
37823;SDS011;23667;43.246;26.576;2022-07-06T01:54:33;7.32;;;2.60;;
37823;SDS011;23667;43.246;26.576;2022-07-06T01:56:58;4.28;;;2.47;;
37823;SDS011;23667;43.246;26.576;2022-07-06T01:59:24;6.13;;;2.47;;
37823;SDS011;23667;43.246;26.576;2022-07-06T02:01:49;4.63;;;2.70;;
37823;SDS011;23667;43.246;26.576;2022-07-06T02:04:15;6.05;;;3.00;;
37823;SDS011;23667;43.246;26.576;2022-07-06T02:06:41;6.15;;;2.88;;
37823;SDS011;23667;43.246;26.576;2022-07-06T02:09:06;3.80;;;3.05;;
37823;SDS011;23667;43.246;26.576;2022-07-06T02:11:32;5.18;;;2.53;;
37823;SDS011;23667;43.246;26.576;2022-07-06T02:13:58;8.40;;;2.40;;
37823;SDS011;23667;43.246;26.576;2022-07-06T02:16:23;5.78;;;2.17;;
37823;SDS011;23667;43.246;26.576;2022-07-06T02:18:49;10.00;;;2.45;;
37823;SDS011;23667;43.246;26.576;2022-07-06T02:21:15;9.23;;;2.40;;
37823;SDS011;23667;43.246;26.576;2022-07-06T02:23:40;8.48;;;2.15;;
37823;SDS011;23667;43.246;26.576;2022-07-06T02:26:06;8.05;;;2.60;;
37823;SDS011;23667;43.246;26.576;2022-07-06T02:28:32;10.10;;;2.75;;
37823;SDS011;23667;43.246;26.576;2022-07-06T02:30:59;10.98;;;2.17;;
37823;SDS011;23667;43.246;26.576;2022-07-06T02:33:24;6.20;;;3.20;;
37823;SDS011;23667;43.246;26.576;2022-07-06T02:35:50;8.18;;;2.70;;
37823;SDS011;23667;43.246;26.576;2022-07-06T02:38:15;6.65;;;3.80;;
37823;SDS011;23667;43.246;26.576;2022-07-06T02:40:41;12.05;;;3.05;;
37823;SDS011;23667;43.246;26.576;2022-07-06T02:43:06;7.10;;;3.58;;
37823;SDS011;23667;43.246;26.576;2022-07-06T02:45:32;13.02;;;4.10;;
37823;SDS011;23667;43.246;26.576;2022-07-06T02:47:58;9.55;;;4.13;;
37823;SDS011;23667;43.246;26.576;2022-07-06T02:50:24;11.05;;;3.65;;
37823;SDS011;23667;43.246;26.576;2022-07-06T02:52:50;10.82;;;4.35;;
37823;SDS011;23667;43.246;26.576;2022-07-06T02:55:15;7.57;;;4.47;;
37823;SDS011;23667;43.246;26.576;2022-07-06T02:57:41;10.88;;;5.07;;
37823;SDS011;23667;43.246;26.576;2022-07-06T03:00:08;9.32;;;4.40;;
37823;SDS011;23667;43.246;26.576;2022-07-06T03:02:35;9.20;;;3.72;;
37823;SDS011;23667;43.246;26.576;2022-07-06T03:05:01;11.88;;;4.30;;
37823;SDS011;23667;43.246;26.576;2022-07-06T03:07:27;13.65;;;5.00;;
37823;SDS011;23667;43.246;26.576;2022-07-06T03:09:52;9.85;;;4.78;;
37823;SDS011;23667;43.246;26.576;2022-07-06T03:12:18;14.57;;;5.10;;
37823;SDS011;23667;43.246;26.576;2022-07-06T03:14:43;16.30;;;5.30;;
37823;SDS011;23667;43.246;26.576;2022-07-06T03:17:09;20.73;;;6.43;;
37823;SDS011;23667;43.246;26.576;2022-07-06T03:19:34;21.27;;;6.05;;
37823;SDS011;23667;43.246;26.576;2022-07-06T03:22:00;11.02;;;5.35;;
37823;SDS011;23667;43.246;26.576;2022-07-06T03:24:26;14.77;;;5.63;;
37823;SDS011;23667;43.246;26.576;2022-07-06T03:26:51;14.15;;;5.63;;
37823;SDS011;23667;43.246;26.576;2022-07-06T03:29:17;14.98;;;6.45;;
37823;SDS011;23667;43.246;26.576;2022-07-06T03:31:42;15.10;;;7.35;;
37823;SDS011;23667;43.246;26.576;2022-07-06T03:34:08;13.07;;;5.97;;
37823;SDS011;23667;43.246;26.576;2022-07-06T03:36:34;8.65;;;5.88;;
37823;SDS011;23667;43.246;26.576;2022-07-06T03:39:00;18.27;;;5.75;;
37823;SDS011;23667;43.246;26.576;2022-07-06T03:41:26;11.65;;;6.43;;
37823;SDS011;23667;43.246;26.576;2022-07-06T03:43:51;14.93;;;7.40;;
37823;SDS011;23667;43.246;26.576;2022-07-06T03:46:17;15.70;;;7.43;;
37823;SDS011;23667;43.246;26.576;2022-07-06T03:48:42;17.33;;;7.53;;
37823;SDS011;23667;43.246;26.576;2022-07-06T03:51:08;25.38;;;7.63;;
37823;SDS011;23667;43.246;26.576;2022-07-06T03:53:35;19.58;;;7.53;;
37823;SDS011;23667;43.246;26.576;2022-07-06T03:56:00;14.60;;;6.90;;
37823;SDS011;23667;43.246;26.576;2022-07-06T03:58:44;11.45;;;6.95;;
37823;SDS011;23667;43.246;26.576;2022-07-06T04:01:10;11.48;;;7.00;;
37823;SDS011;23667;43.246;26.576;2022-07-06T04:03:35;14.02;;;7.10;;
37823;SDS011;23667;43.246;26.576;2022-07-06T04:06:01;13.15;;;7.45;;
37823;SDS011;23667;43.246;26.576;2022-07-06T04:08:26;13.73;;;7.50;;
37823;SDS011;23667;43.246;26.576;2022-07-06T04:10:52;17.25;;;8.30;;
37823;SDS011;23667;43.246;26.576;2022-07-06T04:13:17;19.33;;;8.98;;
37823;SDS011;23667;43.246;26.576;2022-07-06T04:15:43;17.48;;;8.40;;
37823;SDS011;23667;43.246;26.576;2022-07-06T04:18:08;22.50;;;7.80;;
37823;SDS011;23667;43.246;26.576;2022-07-06T04:20:34;16.45;;;7.72;;
37823;SDS011;23667;43.246;26.576;2022-07-06T04:23:00;13.65;;;7.65;;
37823;SDS011;23667;43.246;26.576;2022-07-06T04:25:25;15.20;;;7.60;;
37823;SDS011;23667;43.246;26.576;2022-07-06T04:27:51;16.17;;;7.22;;
37823;SDS011;23667;43.246;26.576;2022-07-06T04:30:17;13.23;;;7.78;;
37823;SDS011;23667;43.246;26.576;2022-07-06T04:32:42;15.95;;;6.95;;
37823;SDS011;23667;43.246;26.576;2022-07-06T04:35:08;18.75;;;6.97;;
37823;SDS011;23667;43.246;26.576;2022-07-06T04:37:35;15.38;;;6.93;;
37823;SDS011;23667;43.246;26.576;2022-07-06T04:40:01;19.33;;;6.70;;
37823;SDS011;23667;43.246;26.576;2022-07-06T04:42:26;17.60;;;8.07;;
37823;SDS011;23667;43.246;26.576;2022-07-06T04:44:52;18.90;;;6.65;;
37823;SDS011;23667;43.246;26.576;2022-07-06T04:47:17;9.35;;;6.75;;
37823;SDS011;23667;43.246;26.576;2022-07-06T04:49:43;13.40;;;7.50;;
37823;SDS011;23667;43.246;26.576;2022-07-06T04:52:09;18.75;;;5.93;;
37823;SDS011;23667;43.246;26.576;2022-07-06T04:54:34;12.70;;;6.10;;
37823;SDS011;23667;43.246;26.576;2022-07-06T04:57:00;15.77;;;5.57;;
37823;SDS011;23667;43.246;26.576;2022-07-06T04:59:25;11.40;;;5.03;;
37823;SDS011;23667;43.246;26.576;2022-07-06T05:01:51;12.82;;;4.80;;
37823;SDS011;23667;43.246;26.576;2022-07-06T05:04:16;9.80;;;4.75;;
37823;SDS011;23667;43.246;26.576;2022-07-06T05:06:44;15.80;;;5.50;;
37823;SDS011;23667;43.246;26.576;2022-07-06T05:09:11;18.15;;;5.55;;
37823;SDS011;23667;43.246;26.576;2022-07-06T05:11:37;16.48;;;3.78;;
37823;SDS011;23667;43.246;26.576;2022-07-06T05:14:02;11.68;;;3.80;;
37823;SDS011;23667;43.246;26.576;2022-07-06T05:16:28;14.77;;;4.10;;
37823;SDS011;23667;43.246;26.576;2022-07-06T05:18:54;24.20;;;4.45;;
37823;SDS011;23667;43.246;26.576;2022-07-06T05:21:19;15.98;;;3.90;;
37823;SDS011;23667;43.246;26.576;2022-07-06T05:23:45;6.45;;;3.80;;
37823;SDS011;23667;43.246;26.576;2022-07-06T05:26:10;13.38;;;4.32;;
37823;SDS011;23667;43.246;26.576;2022-07-06T05:28:36;17.00;;;4.20;;
37823;SDS011;23667;43.246;26.576;2022-07-06T05:31:01;9.25;;;3.95;;
37823;SDS011;23667;43.246;26.576;2022-07-06T05:33:27;20.30;;;5.35;;
37823;SDS011;23667;43.246;26.576;2022-07-06T05:35:53;11.73;;;4.00;;
37823;SDS011;23667;43.246;26.576;2022-07-06T05:38:18;13.73;;;4.07;;
37823;SDS011;23667;43.246;26.576;2022-07-06T05:40:44;14.88;;;4.47;;
37823;SDS011;23667;43.246;26.576;2022-07-06T05:43:10;13.93;;;4.30;;
37823;SDS011;23667;43.246;26.576;2022-07-06T05:45:37;15.30;;;4.47;;
37823;SDS011;23667;43.246;26.576;2022-07-06T05:48:02;12.50;;;4.13;;
37823;SDS011;23667;43.246;26.576;2022-07-06T05:50:46;7.75;;;4.47;;
37823;SDS011;23667;43.246;26.576;2022-07-06T05:53:12;7.40;;;5.38;;
37823;SDS011;23667;43.246;26.576;2022-07-06T05:55:38;6.22;;;4.68;;
37823;SDS011;23667;43.246;26.576;2022-07-06T05:58:03;16.42;;;5.30;;
37823;SDS011;23667;43.246;26.576;2022-07-06T06:00:29;12.80;;;5.15;;
37823;SDS011;23667;43.246;26.576;2022-07-06T06:02:55;16.42;;;5.57;;
37823;SDS011;23667;43.246;26.576;2022-07-06T06:05:23;9.50;;;5.55;;
37823;SDS011;23667;43.246;26.576;2022-07-06T06:07:48;19.33;;;6.15;;
37823;SDS011;23667;43.246;26.576;2022-07-06T06:10:16;12.13;;;5.70;;
37823;SDS011;23667;43.246;26.576;2022-07-06T06:12:43;13.07;;;5.20;;
37823;SDS011;23667;43.246;26.576;2022-07-06T06:15:09;11.10;;;5.22;;
37823;SDS011;23667;43.246;26.576;2022-07-06T06:17:36;14.18;;;6.45;;
37823;SDS011;23667;43.246;26.576;2022-07-06T06:20:03;13.27;;;5.53;;
37823;SDS011;23667;43.246;26.576;2022-07-06T06:22:43;13.20;;;6.43;;
37823;SDS011;23667;43.246;26.576;2022-07-06T06:25:21;11.10;;;5.55;;
37823;SDS011;23667;43.246;26.576;2022-07-06T06:27:52;11.10;;;5.45;;
37823;SDS011;23667;43.246;26.576;2022-07-06T06:30:18;15.30;;;5.75;;
37823;SDS011;23667;43.246;26.576;2022-07-06T06:32:44;16.20;;;5.70;;
37823;SDS011;23667;43.246;26.576;2022-07-06T06:35:09;13.38;;;5.18;;
37823;SDS011;23667;43.246;26.576;2022-07-06T06:37:35;18.50;;;5.63;;
37823;SDS011;23667;43.246;26.576;2022-07-06T06:40:01;11.90;;;5.28;;
37823;SDS011;23667;43.246;26.576;2022-07-06T06:42:28;7.97;;;5.50;;
37823;SDS011;23667;43.246;26.576;2022-07-06T06:44:53;10.35;;;5.20;;
37823;SDS011;23667;43.246;26.576;2022-07-06T06:47:19;12.60;;;5.43;;
37823;SDS011;23667;43.246;26.576;2022-07-06T06:49:45;10.68;;;4.53;;
37823;SDS011;23667;43.246;26.576;2022-07-06T06:52:11;7.45;;;4.40;;
37823;SDS011;23667;43.246;26.576;2022-07-06T06:54:36;7.60;;;4.60;;
37823;SDS011;23667;43.246;26.576;2022-07-06T06:57:02;5.78;;;4.65;;
37823;SDS011;23667;43.246;26.576;2022-07-06T06:59:27;7.63;;;4.72;;
37823;SDS011;23667;43.246;26.576;2022-07-06T07:01:53;7.35;;;5.03;;
37823;SDS011;23667;43.246;26.576;2022-07-06T07:04:19;9.23;;;4.85;;
37823;SDS011;23667;43.246;26.576;2022-07-06T07:06:44;10.85;;;5.70;;
37823;SDS011;23667;43.246;26.576;2022-07-06T07:09:10;5.32;;;4.72;;
37823;SDS011;23667;43.246;26.576;2022-07-06T07:11:35;6.57;;;4.22;;
37823;SDS011;23667;43.246;26.576;2022-07-06T07:14:01;10.63;;;5.40;;
37823;SDS011;23667;43.246;26.576;2022-07-06T07:16:27;9.70;;;5.20;;
37823;SDS011;23667;43.246;26.576;2022-07-06T07:18:53;9.18;;;4.28;;
37823;SDS011;23667;43.246;26.576;2022-07-06T07:21:18;11.50;;;4.35;;
37823;SDS011;23667;43.246;26.576;2022-07-06T07:23:44;9.52;;;4.30;;
37823;SDS011;23667;43.246;26.576;2022-07-06T07:26:10;11.13;;;4.57;;
37823;SDS011;23667;43.246;26.576;2022-07-06T07:28:35;10.27;;;4.85;;
37823;SDS011;23667;43.246;26.576;2022-07-06T07:31:01;9.10;;;4.68;;
37823;SDS011;23667;43.246;26.576;2022-07-06T07:33:28;9.10;;;4.32;;
37823;SDS011;23667;43.246;26.576;2022-07-06T07:35:56;5.65;;;3.40;;
37823;SDS011;23667;43.246;26.576;2022-07-06T07:38:21;4.95;;;3.67;;
37823;SDS011;23667;43.246;26.576;2022-07-06T07:40:47;12.05;;;4.53;;
37823;SDS011;23667;43.246;26.576;2022-07-06T07:43:12;10.13;;;4.07;;
37823;SDS011;23667;43.246;26.576;2022-07-06T07:45:39;7.15;;;3.95;;
37823;SDS011;23667;43.246;26.576;2022-07-06T07:48:08;8.95;;;3.88;;
37823;SDS011;23667;43.246;26.576;2022-07-06T07:50:34;11.30;;;4.55;;
37823;SDS011;23667;43.246;26.576;2022-07-06T07:53:00;7.85;;;4.00;;
37823;SDS011;23667;43.246;26.576;2022-07-06T07:55:26;6.43;;;3.92;;
37823;SDS011;23667;43.246;26.576;2022-07-06T07:57:51;7.45;;;4.68;;
37823;SDS011;23667;43.246;26.576;2022-07-06T08:00:17;4.97;;;3.75;;
37823;SDS011;23667;43.246;26.576;2022-07-06T08:02:42;7.07;;;3.63;;
37823;SDS011;23667;43.246;26.576;2022-07-06T08:05:08;5.57;;;3.92;;
37823;SDS011;23667;43.246;26.576;2022-07-06T08:07:38;5.10;;;3.78;;
37823;SDS011;23667;43.246;26.576;2022-07-06T08:10:03;9.32;;;3.75;;
37823;SDS011;23667;43.246;26.576;2022-07-06T08:12:29;6.00;;;3.50;;
37823;SDS011;23667;43.246;26.576;2022-07-06T08:14:55;7.53;;;3.70;;
37823;SDS011;23667;43.246;26.576;2022-07-06T08:17:21;6.80;;;4.15;;
37823;SDS011;23667;43.246;26.576;2022-07-06T08:19:46;4.10;;;3.60;;
37823;SDS011;23667;43.246;26.576;2022-07-06T08:22:12;5.40;;;3.75;;
37823;SDS011;23667;43.246;26.576;2022-07-06T08:24:37;4.95;;;3.33;;
37823;SDS011;23667;43.246;26.576;2022-07-06T08:27:03;6.97;;;3.75;;
37823;SDS011;23667;43.246;26.576;2022-07-06T08:29:29;10.68;;;3.97;;
37823;SDS011;23667;43.246;26.576;2022-07-06T08:31:55;5.88;;;3.60;;
37823;SDS011;23667;43.246;26.576;2022-07-06T08:34:24;8.20;;;3.75;;
37823;SDS011;23667;43.246;26.576;2022-07-06T08:36:52;6.00;;;3.17;;
37823;SDS011;23667;43.246;26.576;2022-07-06T08:39:20;5.15;;;3.30;;
37823;SDS011;23667;43.246;26.576;2022-07-06T08:41:45;8.82;;;3.40;;
37823;SDS011;23667;43.246;26.576;2022-07-06T08:44:15;8.82;;;2.90;;
37823;SDS011;23667;43.246;26.576;2022-07-06T08:46:44;11.02;;;2.60;;
37823;SDS011;23667;43.246;26.576;2022-07-06T08:49:23;9.80;;;3.60;;
37823;SDS011;23667;43.246;26.576;2022-07-06T08:51:51;9.25;;;3.90;;
37823;SDS011;23667;43.246;26.576;2022-07-06T08:54:23;12.35;;;3.35;;
37823;SDS011;23667;43.246;26.576;2022-07-06T08:56:51;5.65;;;3.30;;
37823;SDS011;23667;43.246;26.576;2022-07-06T08:59:17;4.85;;;2.80;;
37823;SDS011;23667;43.246;26.576;2022-07-06T09:01:48;9.30;;;3.15;;
37823;SDS011;23667;43.246;26.576;2022-07-06T09:04:18;7.43;;;3.60;;
37823;SDS011;23667;43.246;26.576;2022-07-06T09:09:15;10.23;;;3.47;;
37823;SDS011;23667;43.246;26.576;2022-07-06T09:11:45;8.27;;;4.10;;
37823;SDS011;23667;43.246;26.576;2022-07-06T09:14:11;4.60;;;3.38;;
37823;SDS011;23667;43.246;26.576;2022-07-06T09:16:36;5.32;;;3.60;;
37823;SDS011;23667;43.246;26.576;2022-07-06T09:19:03;3.92;;;3.28;;
37823;SDS011;23667;43.246;26.576;2022-07-06T09:21:31;7.07;;;3.10;;
37823;SDS011;23667;43.246;26.576;2022-07-06T09:24:08;9.00;;;3.83;;
37823;SDS011;23667;43.246;26.576;2022-07-06T09:26:35;8.85;;;3.78;;
37823;SDS011;23667;43.246;26.576;2022-07-06T09:29:01;6.28;;;3.60;;
37823;SDS011;23667;43.246;26.576;2022-07-06T09:31:28;4.07;;;2.95;;
37823;SDS011;23667;43.246;26.576;2022-07-06T09:33:59;8.52;;;3.92;;
37823;SDS011;23667;43.246;26.576;2022-07-06T09:36:46;7.18;;;3.28;;
37823;SDS011;23667;43.246;26.576;2022-07-06T09:39:14;5.70;;;3.67;;
37823;SDS011;23667;43.246;26.576;2022-07-06T09:41:51;4.95;;;3.05;;
37823;SDS011;23667;43.246;26.576;2022-07-06T09:44:20;3.70;;;3.20;;
37823;SDS011;23667;43.246;26.576;2022-07-06T09:46:48;7.22;;;3.78;;
37823;SDS011;23667;43.246;26.576;2022-07-06T09:49:18;8.70;;;3.65;;
37823;SDS011;23667;43.246;26.576;2022-07-06T09:51:45;7.97;;;3.83;;
37823;SDS011;23667;43.246;26.576;2022-07-06T09:54:15;7.82;;;3.47;;
37823;SDS011;23667;43.246;26.576;2022-07-06T09:56:43;6.40;;;4.40;;
37823;SDS011;23667;43.246;26.576;2022-07-06T09:59:17;8.10;;;3.92;;
37823;SDS011;23667;43.246;26.576;2022-07-06T10:01:49;9.18;;;3.40;;
37823;SDS011;23667;43.246;26.576;2022-07-06T10:04:17;6.38;;;3.72;;
37823;SDS011;23667;43.246;26.576;2022-07-06T10:06:45;5.13;;;3.70;;
37823;SDS011;23667;43.246;26.576;2022-07-06T10:09:11;9.93;;;4.10;;
37823;SDS011;23667;43.246;26.576;2022-07-06T10:11:48;7.68;;;4.05;;
37823;SDS011;23667;43.246;26.576;2022-07-06T10:14:25;4.20;;;3.75;;
37823;SDS011;23667;43.246;26.576;2022-07-06T10:16:53;10.88;;;3.78;;
37823;SDS011;23667;43.246;26.576;2022-07-06T10:19:21;9.20;;;4.00;;
37823;SDS011;23667;43.246;26.576;2022-07-06T10:22:01;5.53;;;4.00;;
37823;SDS011;23667;43.246;26.576;2022-07-06T10:24:28;7.25;;;4.60;;
37823;SDS011;23667;43.246;26.576;2022-07-06T10:26:55;6.30;;;3.70;;
37823;SDS011;23667;43.246;26.576;2022-07-06T10:29:21;9.07;;;4.30;;
37823;SDS011;23667;43.246;26.576;2022-07-06T10:31:47;14.27;;;3.88;;
37823;SDS011;23667;43.246;26.576;2022-07-06T10:34:14;11.45;;;3.70;;
37823;SDS011;23667;43.246;26.576;2022-07-06T10:36:44;8.27;;;3.47;;
37823;SDS011;23667;43.246;26.576;2022-07-06T10:39:13;5.30;;;3.22;;
37823;SDS011;23667;43.246;26.576;2022-07-06T10:41:57;8.25;;;3.28;;
37823;SDS011;23667;43.246;26.576;2022-07-06T10:44:27;5.43;;;3.20;;
37823;SDS011;23667;43.246;26.576;2022-07-06T10:46:54;7.45;;;3.08;;
37823;SDS011;23667;43.246;26.576;2022-07-06T10:51:50;10.90;;;3.15;;
37823;SDS011;23667;43.246;26.576;2022-07-06T10:54:21;5.47;;;2.97;;
37823;SDS011;23667;43.246;26.576;2022-07-06T10:56:50;7.70;;;3.30;;
37823;SDS011;23667;43.246;26.576;2022-07-06T10:59:21;4.22;;;2.45;;
37823;SDS011;23667;43.246;26.576;2022-07-06T11:04:35;3.78;;;2.72;;
37823;SDS011;23667;43.246;26.576;2022-07-06T11:07:10;6.22;;;2.70;;
37823;SDS011;23667;43.246;26.576;2022-07-06T11:09:40;5.25;;;2.90;;
37823;SDS011;23667;43.246;26.576;2022-07-06T11:12:16;5.30;;;3.03;;
37823;SDS011;23667;43.246;26.576;2022-07-06T11:14:43;8.27;;;3.05;;
37823;SDS011;23667;43.246;26.576;2022-07-06T11:17:11;4.00;;;2.97;;
37823;SDS011;23667;43.246;26.576;2022-07-06T11:19:37;3.78;;;2.85;;
37823;SDS011;23667;43.246;26.576;2022-07-06T11:22:07;4.68;;;3.00;;
37823;SDS011;23667;43.246;26.576;2022-07-06T11:24:35;7.40;;;2.47;;
37823;SDS011;23667;43.246;26.576;2022-07-06T11:27:02;4.40;;;3.08;;
37823;SDS011;23667;43.246;26.576;2022-07-06T11:29:29;7.45;;;2.80;;
37823;SDS011;23667;43.246;26.576;2022-07-06T11:32:04;10.00;;;3.17;;
37823;SDS011;23667;43.246;26.576;2022-07-06T11:34:34;5.25;;;3.00;;
37823;SDS011;23667;43.246;26.576;2022-07-06T11:37:02;5.50;;;3.05;;
37823;SDS011;23667;43.246;26.576;2022-07-06T11:39:35;19.40;;;3.95;;
37823;SDS011;23667;43.246;26.576;2022-07-06T11:42:05;3.83;;;2.97;;
37823;SDS011;23667;43.246;26.576;2022-07-06T11:44:31;9.15;;;2.55;;
37823;SDS011;23667;43.246;26.576;2022-07-06T11:46:58;6.85;;;2.85;;
37823;SDS011;23667;43.246;26.576;2022-07-06T11:49:26;4.78;;;2.72;;
37823;SDS011;23667;43.246;26.576;2022-07-06T11:51:52;14.90;;;3.17;;
37823;SDS011;23667;43.246;26.576;2022-07-06T11:54:18;7.88;;;3.00;;
37823;SDS011;23667;43.246;26.576;2022-07-06T11:56:47;7.35;;;3.38;;
37823;SDS011;23667;43.246;26.576;2022-07-06T11:59:14;4.55;;;2.50;;
37823;SDS011;23667;43.246;26.576;2022-07-06T12:01:41;5.20;;;2.97;;
37823;SDS011;23667;43.246;26.576;2022-07-06T12:04:09;5.95;;;5.05;;
37823;SDS011;23667;43.246;26.576;2022-07-06T12:06:36;7.65;;;3.03;;
37823;SDS011;23667;43.246;26.576;2022-07-06T12:09:02;6.53;;;2.85;;
37823;SDS011;23667;43.246;26.576;2022-07-06T12:11:29;6.97;;;2.90;;
37823;SDS011;23667;43.246;26.576;2022-07-06T12:14:00;4.80;;;2.85;;
37823;SDS011;23667;43.246;26.576;2022-07-06T12:16:38;8.88;;;3.20;;
37823;SDS011;23667;43.246;26.576;2022-07-06T12:19:04;5.03;;;2.80;;
37823;SDS011;23667;43.246;26.576;2022-07-06T12:21:31;6.47;;;2.67;;
37823;SDS011;23667;43.246;26.576;2022-07-06T12:23:57;6.78;;;2.95;;
37823;SDS011;23667;43.246;26.576;2022-07-06T12:26:23;4.45;;;2.83;;
37823;SDS011;23667;43.246;26.576;2022-07-06T12:29:04;7.22;;;2.50;;
37823;SDS011;23667;43.246;26.576;2022-07-06T12:31:36;10.27;;;3.13;;
37823;SDS011;23667;43.246;26.576;2022-07-06T12:34:03;5.07;;;3.10;;
37823;SDS011;23667;43.246;26.576;2022-07-06T12:36:30;4.30;;;3.22;;
37823;SDS011;23667;43.246;26.576;2022-07-06T12:38:56;6.82;;;3.03;;
37823;SDS011;23667;43.246;26.576;2022-07-06T12:41:30;9.32;;;3.35;;
37823;SDS011;23667;43.246;26.576;2022-07-06T12:44:07;8.63;;;2.80;;
37823;SDS011;23667;43.246;26.576;2022-07-06T12:46:38;5.85;;;2.80;;
37823;SDS011;23667;43.246;26.576;2022-07-06T12:49:21;4.80;;;2.83;;
37823;SDS011;23667;43.246;26.576;2022-07-06T12:54:20;24.70;;;3.85;;
37823;SDS011;23667;43.246;26.576;2022-07-06T13:02:22;5.40;;;3.33;;
37823;SDS011;23667;43.246;26.576;2022-07-06T13:05:00;3.40;;;3.00;;
37823;SDS011;23667;43.246;26.576;2022-07-06T13:07:27;12.45;;;3.78;;
37823;SDS011;23667;43.246;26.576;2022-07-06T13:09:54;11.30;;;3.53;;
37823;SDS011;23667;43.246;26.576;2022-07-06T13:12:20;6.80;;;3.38;;
37823;SDS011;23667;43.246;26.576;2022-07-06T13:14:47;9.60;;;3.60;;
37823;SDS011;23667;43.246;26.576;2022-07-06T13:17:13;6.13;;;3.40;;
37823;SDS011;23667;43.246;26.576;2022-07-06T13:19:39;3.35;;;3.05;;
37823;SDS011;23667;43.246;26.576;2022-07-06T13:22:04;8.88;;;3.58;;
37823;SDS011;23667;43.246;26.576;2022-07-06T13:24:32;7.68;;;2.95;;
37823;SDS011;23667;43.246;26.576;2022-07-06T13:26:57;3.47;;;2.97;;
37823;SDS011;23667;43.246;26.576;2022-07-06T13:29:34;5.65;;;3.28;;
37823;SDS011;23667;43.246;26.576;2022-07-06T13:32:00;6.63;;;2.97;;
37823;SDS011;23667;43.246;26.576;2022-07-06T13:34:25;6.70;;;3.53;;
37823;SDS011;23667;43.246;26.576;2022-07-06T13:36:51;7.63;;;3.67;;
37823;SDS011;23667;43.246;26.576;2022-07-06T13:39:17;10.07;;;3.63;;
37823;SDS011;23667;43.246;26.576;2022-07-06T13:41:43;5.20;;;3.33;;
37823;SDS011;23667;43.246;26.576;2022-07-06T13:44:09;5.63;;;3.00;;
37823;SDS011;23667;43.246;26.576;2022-07-06T13:46:37;9.50;;;3.72;;
37823;SDS011;23667;43.246;26.576;2022-07-06T13:49:04;10.02;;;3.53;;
37823;SDS011;23667;43.246;26.576;2022-07-06T13:51:30;7.68;;;3.80;;
37823;SDS011;23667;43.246;26.576;2022-07-06T13:53:57;5.32;;;3.08;;
37823;SDS011;23667;43.246;26.576;2022-07-06T13:56:23;4.95;;;3.67;;
37823;SDS011;23667;43.246;26.576;2022-07-06T13:58:49;8.02;;;3.83;;
37823;SDS011;23667;43.246;26.576;2022-07-06T14:01:15;8.05;;;3.65;;
37823;SDS011;23667;43.246;26.576;2022-07-06T14:03:41;5.80;;;3.40;;
37823;SDS011;23667;43.246;26.576;2022-07-06T14:06:07;11.25;;;4.50;;
37823;SDS011;23667;43.246;26.576;2022-07-06T14:08:36;8.38;;;5.13;;
37823;SDS011;23667;43.246;26.576;2022-07-06T14:11:04;8.98;;;5.82;;
37823;SDS011;23667;43.246;26.576;2022-07-06T14:13:30;12.68;;;6.35;;
37823;SDS011;23667;43.246;26.576;2022-07-06T14:15:56;12.50;;;8.05;;
37823;SDS011;23667;43.246;26.576;2022-07-06T14:18:22;18.88;;;12.65;;
37823;SDS011;23667;43.246;26.576;2022-07-06T14:20:49;18.27;;;12.55;;
37823;SDS011;23667;43.246;26.576;2022-07-06T14:23:18;18.77;;;14.00;;
37823;SDS011;23667;43.246;26.576;2022-07-06T14:25:45;25.60;;;15.05;;
37823;SDS011;23667;43.246;26.576;2022-07-06T14:28:11;26.23;;;16.65;;
37823;SDS011;23667;43.246;26.576;2022-07-06T14:30:42;21.98;;;16.63;;
37823;SDS011;23667;43.246;26.576;2022-07-06T14:33:09;29.67;;;15.77;;
37823;SDS011;23667;43.246;26.576;2022-07-06T14:35:37;20.52;;;13.85;;
37823;SDS011;23667;43.246;26.576;2022-07-06T14:38:04;18.08;;;13.07;;
37823;SDS011;23667;43.246;26.576;2022-07-06T14:40:31;19.58;;;11.95;;
37823;SDS011;23667;43.246;26.576;2022-07-06T14:42:57;16.75;;;11.73;;
37823;SDS011;23667;43.246;26.576;2022-07-06T14:45:24;19.30;;;12.00;;